Time;durP1;ratioP1;P1;durP2;ratioP2;P2;SDS_P1;SDS_P2;PMS_P1;PMS_P2;Temp;Humidity;BMP_temperature;BMP_pressure;BME280_temperature;BME280_humidity;BME280_pressure;Samples;Min_cycle;Max_cycle;Signal;HPM_P1;HPM_P2
2023/01/04 00:01:34;;;;;;;8.50;6.73;;;4.70;99.90;;;;;;5039632;28;20203;-85
2023/01/04 00:04:01;;;;;;;7.97;6.80;;;4.60;99.90;;;;;;5047067;28;20218;-85
2023/01/04 00:06:28;;;;;;;9.70;7.13;;;4.60;99.90;;;;;;5045858;28;20208;-85
2023/01/04 00:08:55;;;;;;;10.53;6.80;;;4.50;99.90;;;;;;5039857;28;20335;-83
2023/01/04 00:11:23;;;;;;;9.97;7.37;;;4.40;99.90;;;;;;5047578;28;20222;-84
2023/01/04 00:13:51;;;;;;;7.27;6.53;;;4.40;99.90;;;;;;5041466;28;20222;-84
2023/01/04 00:16:22;;;;;;;6.93;6.23;;;4.30;99.90;;;;;;5044984;28;20198;-84
2023/01/04 00:18:49;;;;;;;7.80;6.00;;;4.30;99.90;;;;;;5038513;28;20571;-83
2023/01/04 00:21:17;;;;;;;10.10;6.70;;;4.30;99.90;;;;;;5033840;28;20209;-84
2023/01/04 00:23:46;;;;;;;7.33;6.07;;;4.30;99.90;;;;;;5038680;28;20225;-84
2023/01/04 00:26:15;;;;;;;9.30;6.87;;;4.30;99.90;;;;;;5037685;28;20207;-83
2023/01/04 00:28:42;;;;;;;10.10;7.13;;;4.30;99.90;;;;;;5040689;28;20209;-83
2023/01/04 00:31:11;;;;;;;8.27;7.20;;;4.20;99.90;;;;;;5036116;28;20655;-85
2023/01/04 00:33:39;;;;;;;10.60;7.10;;;4.10;99.90;;;;;;5042552;28;20241;-85
2023/01/04 00:36:09;;;;;;;11.83;7.60;;;4.20;99.90;;;;;;5044144;28;20561;-85
2023/01/04 00:38:36;;;;;;;9.53;7.33;;;4.10;99.90;;;;;;5040841;28;20252;-85
2023/01/04 00:41:03;;;;;;;10.43;7.80;;;4.10;99.90;;;;;;5041434;28;20194;-84
2023/01/04 00:43:31;;;;;;;11.67;8.17;;;4.10;99.90;;;;;;5039580;28;20206;-83
2023/01/04 00:46:00;;;;;;;10.27;8.03;;;4.10;99.90;;;;;;5042064;28;20199;-83
2023/01/04 00:48:27;;;;;;;12.27;7.67;;;4.00;99.90;;;;;;5041484;28;20256;-83
2023/01/04 00:50:55;;;;;;;10.60;7.57;;;3.90;99.90;;;;;;5039258;28;20201;-84
2023/01/04 00:53:22;;;;;;;9.03;6.93;;;3.90;99.90;;;;;;5043921;28;20214;-83
2023/01/04 00:55:49;;;;;;;11.27;7.67;;;3.90;99.90;;;;;;5038016;28;20208;-83
2023/01/04 00:58:16;;;;;;;9.57;7.27;;;3.90;99.90;;;;;;5040132;28;20561;-83
2023/01/04 01:00:52;;;;;;;10.33;7.77;;;3.80;99.90;;;;;;5044879;28;20217;-85
2023/01/04 01:03:19;;;;;;;10.17;7.17;;;3.80;99.90;;;;;;5038094;28;20209;-83
2023/01/04 01:05:46;;;;;;;9.93;7.47;;;3.80;99.90;;;;;;5044192;28;20650;-83
2023/01/04 01:08:26;;;;;;;9.47;7.30;;;3.70;99.90;;;;;;5043219;28;20205;-82
2023/01/04 01:10:54;;;;;;;10.47;7.07;;;3.70;99.90;;;;;;5040457;28;20751;-82
2023/01/04 01:13:21;;;;;;;10.63;7.47;;;3.70;99.90;;;;;;5038022;28;20227;-83
2023/01/04 01:15:48;;;;;;;8.90;6.60;;;3.70;99.90;;;;;;5043229;28;20210;-83
2023/01/04 01:18:15;;;;;;;9.83;6.80;;;3.70;99.90;;;;;;5043258;28;20198;-83
2023/01/04 01:20:43;;;;;;;8.53;6.73;;;3.70;99.90;;;;;;5041116;28;20238;-83
2023/01/04 01:23:12;;;;;;;9.20;6.97;;;3.60;99.90;;;;;;5042435;28;20213;-83
2023/01/04 01:25:41;;;;;;;7.53;6.27;;;3.70;99.90;;;;;;5039364;28;20639;-83
2023/01/04 01:28:08;;;;;;;7.53;6.27;;;3.70;99.90;;;;;;5038839;28;20194;-83
2023/01/04 01:30:39;;;;;;;8.00;6.10;;;3.60;99.90;;;;;;5044863;28;20201;-83
2023/01/04 01:33:06;;;;;;;11.13;7.10;;;3.60;99.90;;;;;;5043286;28;20268;-83
2023/01/04 01:35:33;;;;;;;9.77;7.23;;;3.60;99.90;;;;;;5043621;28;20214;-83
2023/01/04 01:38:00;;;;;;;7.87;6.23;;;3.50;99.90;;;;;;5044003;28;20224;-83
2023/01/04 01:40:27;;;;;;;8.27;6.30;;;3.50;99.90;;;;;;5037275;28;20214;-83
2023/01/04 01:42:55;;;;;;;7.13;5.73;;;3.50;99.90;;;;;;5037989;28;20202;-83
2023/01/04 01:45:28;;;;;;;9.27;5.73;;;3.50;99.90;;;;;;5041716;28;20206;-83
2023/01/04 01:47:59;;;;;;;6.80;5.63;;;3.60;99.90;;;;;;5042681;28;20202;-83
2023/01/04 01:50:29;;;;;;;7.73;6.17;;;3.60;99.90;;;;;;5038835;28;20213;-83
2023/01/04 01:52:58;;;;;;;8.50;6.30;;;3.70;99.90;;;;;;5037918;28;20244;-83
2023/01/04 01:55:26;;;;;;;7.27;5.70;;;3.70;99.90;;;;;;5037994;28;20206;-83
2023/01/04 01:57:55;;;;;;;7.27;5.63;;;3.70;99.90;;;;;;5038598;28;20191;-83
2023/01/04 02:00:22;;;;;;;7.33;6.07;;;3.60;99.90;;;;;;5039833;28;20645;-83
2023/01/04 02:02:56;;;;;;;8.60;5.80;;;3.50;99.90;;;;;;5039694;28;20198;-83
2023/01/04 02:12:11;;;;;;;7.87;6.33;;;3.30;99.90;;;;;;5033038;28;20638;-83
2023/01/04 02:14:41;;;;;;;7.87;6.47;;;3.40;99.90;;;;;;5038528;28;20203;-82
2023/01/04 02:17:16;;;;;;;8.07;5.70;;;3.50;99.90;;;;;;5040166;28;20203;-82
2023/01/04 02:20:03;;;;;;;8.77;6.70;;;3.50;99.90;;;;;;5039320;28;20229;-83
2023/01/04 02:23:09;;;;;;;9.33;6.27;;;3.60;99.90;;;;;;5044770;28;20740;-83
2023/01/04 02:26:17;;;;;;;8.03;6.60;;;3.70;99.90;;;;;;5005560;28;20207;-83
2023/01/04 02:29:10;;;;;;;9.63;6.80;;;3.60;99.90;;;;;;5038890;28;20213;-83
2023/01/04 02:31:40;;;;;;;9.17;6.50;;;3.70;99.90;;;;;;5046108;28;20658;-83
2023/01/04 02:34:15;;;;;;;8.63;6.53;;;3.70;99.90;;;;;;5045311;28;20218;-83
2023/01/04 02:36:49;;;;;;;9.37;7.50;;;3.80;99.90;;;;;;5045558;28;20229;-83
2023/01/04 02:39:27;;;;;;;10.17;7.73;;;3.90;99.90;;;;;;5041026;28;20200;-83
2023/01/04 02:41:59;;;;;;;7.83;6.83;;;3.80;99.90;;;;;;5046595;28;20194;-83
2023/01/04 02:50:29;;;;;;;10.10;8.10;;;3.90;99.90;;;;;;5048605;28;20573;-83
2023/01/04 02:50:30;;;;;;;9.73;8.07;;;3.90;99.90;;;;;;5040645;28;20297;-83
2023/01/04 02:52:57;;;;;;;9.67;7.57;;;3.90;99.90;;;;;;5047602;28;20225;-83
2023/01/04 02:55:30;;;;;;;9.33;7.90;;;3.90;99.90;;;;;;5041534;28;20202;-83
2023/01/04 02:58:04;;;;;;;10.10;8.03;;;3.90;99.90;;;;;;5044093;28;20201;-83
2023/01/04 03:06:30;;;;;;;9.27;7.17;;;4.20;99.90;;;;;;5045609;28;20201;-84
2023/01/04 03:09:03;;;;;;;12.07;7.80;;;4.30;99.90;;;;;;5043817;28;20208;-84
2023/01/04 03:14:27;;;;;;;9.13;7.13;;;4.40;99.90;;;;;;5041084;28;20238;-84
2023/01/04 03:16:55;;;;;;;8.83;7.30;;;4.40;99.90;;;;;;5040097;28;20213;-84
2023/01/04 03:35:21;;;;;;;9.83;7.47;;;4.30;99.90;;;;;;5046803;28;20241;-84
2023/01/04 03:36:12;;;;;;;9.90;8.03;;;4.10;99.90;;;;;;5039588;28;20562;-84
2023/01/04 03:50:10;;;;;;;11.87;8.77;;;4.40;99.90;;;;;;5046065;28;20213;-84
2023/01/04 03:52:41;;;;;;;10.93;9.00;;;4.50;99.90;;;;;;5040194;28;20199;-84
2023/01/04 03:55:10;;;;;;;10.43;8.33;;;4.40;99.90;;;;;;5046468;28;20244;-84
2023/01/04 03:57:37;;;;;;;9.37;7.83;;;4.30;99.90;;;;;;5044245;28;20199;-85
2023/01/04 04:00:09;;;;;;;12.93;8.07;;;4.20;99.90;;;;;;5046156;28;20228;-84
2023/01/04 04:02:37;;;;;;;9.20;8.00;;;4.20;99.90;;;;;;5040754;28;20198;-84
2023/01/04 04:10:35;;;;;;;10.93;7.87;;;4.40;99.90;;;;;;5045255;28;20208;-84
2023/01/04 04:13:02;;;;;;;8.60;7.60;;;4.40;99.90;;;;;;5040500;28;20227;-85
2023/01/04 04:15:28;;;;;;;10.00;8.17;;;4.40;99.90;;;;;;5041512;28;20201;-84
2023/01/04 04:17:55;;;;;;;8.97;7.30;;;4.30;99.90;;;;;;5044676;28;20659;-82
2023/01/04 04:20:22;;;;;;;10.17;7.70;;;4.30;99.90;;;;;;5044322;28;20198;-84
2023/01/04 04:22:50;;;;;;;9.23;7.40;;;4.10;99.90;;;;;;5041322;28;20222;-82
2023/01/04 04:25:17;;;;;;;8.83;7.60;;;4.00;99.90;;;;;;5039316;28;20208;-82
2023/01/04 04:27:44;;;;;;;8.00;6.73;;;3.90;99.90;;;;;;5045837;28;20286;-82
2023/01/04 04:30:11;;;;;;;7.90;6.53;;;3.80;99.90;;;;;;5036424;28;20202;-82
2023/01/04 04:32:37;;;;;;;7.50;6.40;;;3.70;99.90;;;;;;5049137;28;20194;-82
2023/01/04 04:35:05;;;;;;;7.77;6.17;;;3.60;99.90;;;;;;5040838;28;20225;-83
2023/01/04 04:37:33;;;;;;;8.57;5.70;;;3.60;99.90;;;;;;5041887;28;20209;-84
2023/01/04 04:40:01;;;;;;;6.93;5.70;;;3.50;99.90;;;;;;5042504;28;20672;-84
2023/01/04 04:42:27;;;;;;;5.90;5.07;;;3.60;99.90;;;;;;5039935;28;20209;-83
2023/01/04 04:44:53;;;;;;;5.97;4.80;;;3.60;99.90;;;;;;5042354;28;20206;-83
2023/01/04 04:47:20;;;;;;;7.20;5.37;;;3.60;99.90;;;;;;5038716;28;20623;-83
2023/01/04 04:49:47;;;;;;;5.97;5.33;;;3.60;99.90;;;;;;5037981;28;20676;-82
2023/01/04 04:52:14;;;;;;;6.07;5.23;;;3.40;99.90;;;;;;5038332;28;20213;-81
2023/01/04 04:54:41;;;;;;;5.60;5.00;;;3.30;99.90;;;;;;5037754;28;20226;-83
2023/01/04 04:57:09;;;;;;;5.83;5.00;;;3.20;99.90;;;;;;5044240;28;20194;-83
2023/01/04 04:59:36;;;;;;;6.27;5.00;;;3.20;99.90;;;;;;5042605;28;20198;-82
2023/01/04 05:02:03;;;;;;;6.30;5.40;;;3.10;99.90;;;;;;5039555;28;20634;-83
2023/01/04 05:04:30;;;;;;;6.03;5.20;;;3.00;99.90;;;;;;5044597;28;20202;-83
2023/01/04 05:06:56;;;;;;;6.87;5.30;;;2.90;99.90;;;;;;5042022;28;20209;-83
2023/01/04 05:09:23;;;;;;;6.50;5.37;;;3.00;99.90;;;;;;5036789;28;20198;-83
2023/01/04 05:14:35;;;;;;;6.53;4.83;;;2.90;99.90;;;;;;5041169;28;20252;-83
2023/01/04 05:17:02;;;;;;;6.10;5.13;;;2.80;99.90;;;;;;5042424;28;20202;-83
2023/01/04 05:19:29;;;;;;;5.20;4.70;;;2.80;99.90;;;;;;5043418;28;20202;-83
2023/01/04 05:21:56;;;;;;;5.37;4.63;;;2.70;99.90;;;;;;5045220;28;20201;-83
2023/01/04 05:24:23;;;;;;;5.10;4.40;;;2.70;99.90;;;;;;5036606;28;20227;-83
2023/01/04 05:26:49;;;;;;;6.07;4.83;;;2.70;99.90;;;;;;5044082;28;20580;-83
2023/01/04 05:31:58;;;;;;;5.60;4.67;;;2.60;99.90;;;;;;5042570;28;20655;-83
2023/01/04 05:34:25;;;;;;;5.10;4.47;;;2.60;99.90;;;;;;5041745;28;20233;-83
2023/01/04 05:36:52;;;;;;;4.90;4.40;;;2.60;99.90;;;;;;5042703;28;20271;-83
2023/01/04 05:39:19;;;;;;;5.03;4.47;;;2.60;99.90;;;;;;5044831;28;20240;-83
2023/01/04 05:44:30;;;;;;;6.43;4.43;;;2.60;99.90;;;;;;5040662;28;20204;-83
2023/01/04 05:46:58;;;;;;;4.70;4.17;;;2.60;99.90;;;;;;5042465;28;20203;-83
2023/01/04 05:49:25;;;;;;;5.13;4.27;;;2.70;99.90;;;;;;5044537;28;20209;-83
2023/01/04 05:51:51;;;;;;;7.50;4.10;;;2.70;99.90;;;;;;5037564;28;20588;-83
2023/01/04 05:54:19;;;;;;;4.93;4.40;;;2.80;99.90;;;;;;5038727;28;20230;-83
2023/01/04 05:56:45;;;;;;;4.70;4.10;;;2.70;99.90;;;;;;5043176;28;20499;-83
2023/01/04 05:59:12;;;;;;;4.70;4.23;;;2.70;99.90;;;;;;5042705;28;20229;-83
2023/01/04 06:01:39;;;;;;;4.50;3.90;;;2.70;99.90;;;;;;5042672;28;20210;-83
2023/01/04 06:04:07;;;;;;;4.83;4.10;;;2.80;99.90;;;;;;5042377;28;20207;-82
2023/01/04 06:06:34;;;;;;;4.40;4.00;;;2.80;99.90;;;;;;5042441;28;20198;-83
2023/01/04 06:09:01;;;;;;;4.63;4.20;;;2.80;99.90;;;;;;5042986;28;20206;-83
2023/01/04 06:11:27;;;;;;;4.17;3.77;;;2.80;99.90;;;;;;5046144;28;20225;-83
2023/01/04 06:13:54;;;;;;;4.37;3.90;;;2.90;99.90;;;;;;5043871;28;20683;-83
2023/01/04 06:16:21;;;;;;;5.10;3.83;;;3.00;99.90;;;;;;5045162;28;20573;-82
2023/01/04 06:18:48;;;;;;;4.20;3.80;;;3.10;99.90;;;;;;5041093;28;20202;-83
2023/01/04 06:21:16;;;;;;;3.97;3.57;;;3.20;99.90;;;;;;5039249;28;20576;-83
2023/01/04 06:23:43;;;;;;;4.27;3.87;;;3.20;99.90;;;;;;5048192;28;20710;-82
2023/01/04 06:26:10;;;;;;;4.13;3.73;;;3.30;99.90;;;;;;5038897;28;20203;-83
2023/01/04 06:28:36;;;;;;;3.83;3.30;;;3.30;99.90;;;;;;5040438;28;20209;-83
2023/01/04 06:31:04;;;;;;;4.03;3.40;;;3.40;99.90;;;;;;5048134;28;20206;-83
2023/01/04 06:33:32;;;;;;;3.50;3.20;;;3.50;99.90;;;;;;5047306;28;20663;-83
2023/01/04 06:35:59;;;;;;;3.00;2.70;;;3.60;99.90;;;;;;5045130;28;20205;-83
2023/01/04 06:38:28;;;;;;;3.57;3.00;;;3.70;99.90;;;;;;5044733;28;20213;-83
2023/01/04 06:40:54;;;;;;;3.60;3.00;;;3.80;99.90;;;;;;5047124;28;20217;-83
2023/01/04 06:43:21;;;;;;;3.30;2.90;;;3.80;99.90;;;;;;5038028;28;20195;-83
2023/01/04 06:45:48;;;;;;;3.00;2.70;;;3.90;99.90;;;;;;5037575;28;20240;-85
2023/01/04 06:48:15;;;;;;;3.17;2.83;;;4.10;99.90;;;;;;5043281;28;20210;-85
2023/01/04 06:50:42;;;;;;;2.93;2.57;;;4.30;99.90;;;;;;5043542;28;20195;-84
2023/01/04 06:53:09;;;;;;;2.60;2.40;;;4.40;99.90;;;;;;5042988;28;20217;-85
2023/01/04 06:55:37;;;;;;;2.90;2.50;;;4.40;99.90;;;;;;5047237;28;20225;-83
2023/01/04 06:58:04;;;;;;;2.70;2.50;;;4.40;99.90;;;;;;5045249;28;20220;-84
2023/01/04 07:00:31;;;;;;;2.73;2.53;;;4.30;99.90;;;;;;5044539;28;20205;-82
2023/01/04 07:02:57;;;;;;;2.90;2.60;;;4.30;99.90;;;;;;5040593;28;20205;-83
2023/01/04 07:05:24;;;;;;;3.03;2.73;;;4.00;99.90;;;;;;5043073;28;20206;-83
2023/01/04 07:07:51;;;;;;;2.80;2.60;;;3.80;99.90;;;;;;5041198;28;20205;-83
2023/01/04 07:10:18;;;;;;;3.10;2.80;;;3.70;99.90;;;;;;5042047;28;20684;-83
2023/01/04 07:12:46;;;;;;;3.30;3.00;;;3.60;99.90;;;;;;5039236;28;20249;-83
2023/01/04 07:15:13;;;;;;;3.30;3.00;;;3.50;99.90;;;;;;5045752;28;20229;-83
2023/01/04 07:17:40;;;;;;;2.90;2.67;;;3.50;99.90;;;;;;5037429;28;20218;-83
2023/01/04 07:20:07;;;;;;;2.60;2.40;;;3.40;99.90;;;;;;5046381;28;20194;-83
2023/01/04 07:22:34;;;;;;;2.73;2.50;;;3.40;99.90;;;;;;5046101;28;20229;-83
2023/01/04 07:25:01;;;;;;;3.40;2.90;;;3.30;99.90;;;;;;5040772;28;20584;-83
2023/01/04 07:27:28;;;;;;;2.60;2.40;;;3.30;99.90;;;;;;5043111;28;20564;-83
2023/01/04 07:29:56;;;;;;;2.70;2.50;;;3.30;99.90;;;;;;5039415;28;20207;-83
2023/01/04 07:32:23;;;;;;;3.23;2.70;;;3.30;99.90;;;;;;5044415;28;20197;-83
2023/01/04 07:34:50;;;;;;;3.80;2.63;;;3.30;99.90;;;;;;5037916;28;20234;-83
2023/01/04 07:37:17;;;;;;;3.53;2.53;;;3.30;99.90;;;;;;5041575;28;20205;-83
2023/01/04 07:39:44;;;;;;;3.10;2.80;;;3.30;99.90;;;;;;5040980;28;20205;-82
2023/01/04 07:42:11;;;;;;;2.90;2.60;;;3.30;99.90;;;;;;5042392;28;20225;-83
2023/01/04 07:44:38;;;;;;;2.73;2.53;;;3.20;99.90;;;;;;5040042;28;20557;-83
2023/01/04 07:47:06;;;;;;;3.63;3.03;;;3.20;99.90;;;;;;5040545;28;20206;-83
2023/01/04 07:49:33;;;;;;;3.37;3.07;;;3.30;99.90;;;;;;5041663;28;20195;-83
2023/01/04 07:52:00;;;;;;;3.37;3.07;;;3.40;99.90;;;;;;5043351;28;20202;-82
2023/01/04 07:54:27;;;;;;;3.87;3.10;;;3.40;99.90;;;;;;5041653;28;20219;-83
2023/01/04 07:56:54;;;;;;;2.90;2.60;;;3.50;99.90;;;;;;5039479;28;20210;-83
2023/01/04 07:59:21;;;;;;;4.07;3.10;;;3.70;99.90;;;;;;5036040;28;20206;-83
2023/01/04 08:01:49;;;;;;;3.17;2.77;;;3.80;99.90;;;;;;5042115;28;20194;-83
2023/01/04 08:04:18;;;;;;;3.20;2.80;;;4.00;99.90;;;;;;5044938;28;20669;-83
2023/01/04 08:06:46;;;;;;;2.97;2.67;;;4.00;99.90;;;;;;5037404;28;20209;-83
2023/01/04 08:09:13;;;;;;;2.70;2.50;;;4.20;99.90;;;;;;5042297;28;20260;-84
2023/01/04 08:11:39;;;;;;;2.73;2.53;;;4.30;99.90;;;;;;5043296;28;20229;-84
2023/01/04 08:14:06;;;;;;;2.70;2.50;;;4.40;99.90;;;;;;5040068;28;20588;-85
2023/01/04 08:16:35;;;;;;;2.63;2.40;;;4.50;99.90;;;;;;5042729;28;20579;-85
2023/01/04 08:19:04;;;;;;;2.33;2.13;;;4.60;99.90;;;;;;5045818;28;20201;-85
2023/01/04 08:21:34;;;;;;;2.40;2.20;;;4.70;99.90;;;;;;5040055;28;20205;-85
2023/01/04 08:24:01;;;;;;;2.60;2.20;;;4.90;99.90;;;;;;5044272;28;20636;-85
2023/01/04 08:26:29;;;;;;;2.77;2.20;;;5.00;99.90;;;;;;5034675;28;20202;-85
2023/01/04 08:28:56;;;;;;;2.20;2.00;;;5.10;99.90;;;;;;5040969;28;20202;-85
2023/01/04 08:31:24;;;;;;;2.40;2.20;;;5.30;99.90;;;;;;5036404;28;20643;-85
2023/01/04 08:33:52;;;;;;;2.30;2.10;;;5.40;99.90;;;;;;5042643;28;20202;-85
2023/01/04 08:36:20;;;;;;;2.10;1.90;;;5.50;99.90;;;;;;5036146;28;20215;-85
2023/01/04 08:38:50;;;;;;;2.03;1.87;;;5.60;99.90;;;;;;5039437;28;20205;-85
2023/01/04 08:41:17;;;;;;;2.30;2.10;;;5.70;99.90;;;;;;5041695;28;20233;-85
2023/01/04 08:43:45;;;;;;;2.20;2.00;;;5.80;99.90;;;;;;5043836;28;20284;-85
2023/01/04 08:46:13;;;;;;;2.17;1.97;;;5.90;99.90;;;;;;5041484;28;20202;-85
2023/01/04 08:48:40;;;;;;;2.80;2.60;;;6.00;99.90;;;;;;5040995;28;20582;-85
2023/01/04 08:51:11;;;;;;;3.20;2.77;;;6.10;99.90;;;;;;5039923;28;20217;-85
2023/01/04 08:53:38;;;;;;;2.15;1.95;;;6.70;99.90;;;;;;5040409;28;20199;-85
2023/01/04 08:56:07;;;;;;;2.20;2.00;;;7.10;99.90;;;;;;5040840;28;20226;-85
2023/01/04 08:58:36;;;;;;;1.80;1.67;;;7.40;98.90;;;;;;5037954;28;20198;-85
2023/01/04 09:01:04;;;;;;;2.25;1.85;;;8.20;97.30;;;;;;5036199;28;20212;-85
2023/01/04 09:03:32;;;;;;;2.47;2.28;;;9.00;94.60;;;;;;5039610;28;20211;-86
2023/01/04 09:06:03;;;;;;;2.33;2.13;;;9.90;90.70;;;;;;5034330;28;20218;-85
2023/01/04 09:08:31;;;;;;;2.92;2.22;;;10.10;85.90;;;;;;5037178;28;20198;-85
2023/01/04 09:10:58;;;;;;;1.70;1.60;;;9.90;87.50;;;;;;5044641;28;20297;-85
2023/01/04 09:13:26;;;;;;;1.90;1.80;;;9.40;90.50;;;;;;5044410;28;20570;-85
2023/01/04 09:15:53;;;;;;;1.60;1.50;;;9.10;92.20;;;;;;5043833;28;20253;-85
2023/01/04 09:18:20;;;;;;;2.55;2.35;;;9.50;90.90;;;;;;5037713;28;20210;-85
2023/01/04 09:20:49;;;;;;;2.00;1.90;;;9.50;90.60;;;;;;5041897;28;20202;-85
2023/01/04 09:23:47;;;;;;;4.32;1.90;;;9.70;90.60;;;;;;5043878;28;20214;-85
2023/01/04 09:26:32;;;;;;;2.53;2.33;;;10.50;83.10;;;;;;5042042;28;20220;-85
2023/01/04 09:29:02;;;;;;;2.08;1.88;;;10.30;83.60;;;;;;5050404;28;20193;-85
2023/01/04 09:31:29;;;;;;;2.00;1.90;;;10.30;83.50;;;;;;5042918;28;20190;-85
2023/01/04 09:33:57;;;;;;;2.13;1.92;;;10.60;82.20;;;;;;5049182;28;20198;-85
2023/01/04 09:36:24;;;;;;;1.95;1.85;;;10.70;81.60;;;;;;5040637;28;20222;-85
2023/01/04 09:38:51;;;;;;;2.00;1.80;;;11.30;75.60;;;;;;5041597;28;20201;-85
2023/01/04 09:41:25;;;;;;;2.25;2.05;;;11.50;74.70;;;;;;5045498;28;20653;-85
2023/01/04 09:43:54;;;;;;;2.10;1.90;;;12.10;68.10;;;;;;5041277;28;20198;-85
2023/01/04 09:46:29;;;;;;;1.90;1.80;;;12.60;58.30;;;;;;5047967;28;20209;-85
2023/01/04 09:49:05;;;;;;;10.57;9.15;;;12.80;54.30;;;;;;5041523;28;20228;-85
2023/01/04 09:51:37;;;;;;;2.03;1.90;;;12.50;56.90;;;;;;5041311;28;20208;-85
2023/01/04 09:54:11;;;;;;;1.95;1.85;;;12.30;61.60;;;;;;5043314;28;20349;-85
2023/01/04 09:56:39;;;;;;;1.60;1.50;;;12.20;58.70;;;;;;5040115;28;20655;-85
2023/01/04 09:59:12;;;;;;;2.10;1.90;;;11.80;68.10;;;;;;5037209;28;20222;-85
2023/01/04 10:01:44;;;;;;;1.85;1.70;;;11.50;70.20;;;;;;5049730;28;20670;-85
2023/01/04 10:04:18;;;;;;;1.98;1.80;;;11.20;74.40;;;;;;5042964;28;20198;-85
2023/01/04 10:06:45;;;;;;;2.97;2.20;;;10.70;78.80;;;;;;5049074;28;20209;-85
2023/01/04 10:09:15;;;;;;;1.90;1.55;;;10.50;82.10;;;;;;5046869;28;20213;-85
2023/01/04 10:12:06;;;;;;;1.70;1.60;;;10.20;83.50;;;;;;5046900;28;20244;-85
2023/01/04 10:14:46;;;;;;;1.80;1.70;;;10.00;84.30;;;;;;5043929;28;20257;-85
2023/01/04 10:17:26;;;;;;;1.67;1.50;;;9.80;88.60;;;;;;5044939;28;20201;-85
2023/01/04 10:20:12;;;;;;;1.67;1.58;;;9.70;89.00;;;;;;5049434;28;20202;-85
2023/01/04 10:22:45;;;;;;;2.03;1.58;;;9.60;90.60;;;;;;5048478;28;20229;-85
2023/01/04 10:25:24;;;;;;;1.60;1.50;;;9.60;90.60;;;;;;5054309;28;20204;-85
2023/01/04 10:28:10;;;;;;;1.80;1.60;;;9.60;90.00;;;;;;5043884;28;20672;-85
2023/01/04 10:30:43;;;;;;;1.63;1.50;;;9.60;90.20;;;;;;5047139;28;20206;-85
2023/01/04 10:33:14;;;;;;;2.50;1.50;;;9.60;90.60;;;;;;5049295;28;20209;-85
2023/01/04 10:35:44;;;;;;;2.05;1.30;;;9.70;90.10;;;;;;5047986;28;20229;-85
2023/01/04 10:38:18;;;;;;;1.50;1.40;;;9.90;88.10;;;;;;5042614;28;20537;-85
2023/01/04 10:40:47;;;;;;;1.70;1.40;;;10.00;85.80;;;;;;5036684;28;20301;-85
2023/01/04 10:43:21;;;;;;;2.03;1.70;;;10.10;85.70;;;;;;5053958;28;20218;-85
2023/01/04 10:45:53;;;;;;;4.35;3.58;;;10.40;86.20;;;;;;5050696;28;20262;-85
2023/01/04 10:48:30;;;;;;;1.70;1.48;;;10.60;80.70;;;;;;5040288;28;20199;-85
2023/01/04 10:50:59;;;;;;;2.20;2.00;;;10.90;77.50;;;;;;5049559;28;20223;-85
2023/01/04 10:53:30;;;;;;;1.67;1.30;;;10.90;76.60;;;;;;5052855;28;20194;-85
2023/01/04 10:56:02;;;;;;;1.30;1.20;;;10.70;75.10;;;;;;5047013;28;20229;-84
2023/01/04 10:58:34;;;;;;;1.33;1.20;;;10.50;73.60;;;;;;5041759;28;20680;-85
2023/01/04 11:01:06;;;;;;;6.78;5.40;;;10.30;75.70;;;;;;5048515;28;20570;-85
2023/01/04 11:03:39;;;;;;;1.65;1.08;;;10.10;78.60;;;;;;5041312;28;20207;-85
2023/01/04 11:06:14;;;;;;;1.70;1.60;;;9.90;78.40;;;;;;5046348;28;20658;-84
2023/01/04 11:08:47;;;;;;;1.48;1.30;;;9.70;80.60;;;;;;5037413;28;20199;-85
2023/01/04 11:11:18;;;;;;;2.33;1.60;;;9.50;81.80;;;;;;5046020;28;20237;-84
2023/01/04 11:13:45;;;;;;;1.30;1.20;;;9.40;82.90;;;;;;5048132;28;20199;-85
2023/01/04 11:16:12;;;;;;;1.30;0.93;;;9.30;83.20;;;;;;5042836;28;20596;-85
2023/01/04 11:18:43;;;;;;;1.10;1.00;;;9.30;85.70;;;;;;5049067;28;20641;-85
2023/01/04 11:21:13;;;;;;;1.20;1.10;;;9.30;84.70;;;;;;5039481;28;20198;-84
2023/01/04 11:23:40;;;;;;;1.30;1.20;;;9.30;81.80;;;;;;5041515;28;20226;-85
2023/01/04 11:26:12;;;;;;;1.40;1.30;;;9.40;81.10;;;;;;5042519;28;20582;-84
2023/01/04 11:28:43;;;;;;;3.40;1.08;;;9.50;80.10;;;;;;5037800;28;20340;-85
2023/01/04 11:31:19;;;;;;;1.35;1.10;;;9.50;78.20;;;;;;5038761;28;20199;-85
2023/01/04 11:33:56;;;;;;;1.00;0.90;;;9.50;77.60;;;;;;5048124;28;20209;-85
2023/01/04 11:36:34;;;;;;;1.23;1.13;;;9.40;77.70;;;;;;5041388;28;20225;-85
2023/01/04 11:39:02;;;;;;;1.75;1.20;;;9.40;78.90;;;;;;5045550;28;20725;-85
2023/01/04 11:41:31;;;;;;;1.38;1.27;;;9.40;78.20;;;;;;5045983;28;20208;-85
2023/01/04 11:43:59;;;;;;;2.28;1.13;;;9.40;81.60;;;;;;5040327;28;20194;-85
2023/01/04 11:46:27;;;;;;;1.40;1.23;;;9.40;79.20;;;;;;5043668;28;20570;-85
2023/01/04 11:48:56;;;;;;;1.55;1.38;;;9.50;78.60;;;;;;5038844;28;20203;-85
2023/01/04 11:51:38;;;;;;;4.60;3.70;;;9.60;77.90;;;;;;5041741;28;20224;-85
2023/01/04 11:54:17;;;;;;;1.55;1.45;;;9.80;77.40;;;;;;5051620;28;20201;-85
2023/01/04 11:56:59;;;;;;;1.80;1.30;;;9.90;74.90;;;;;;5041518;28;20245;-85
2023/01/04 11:59:27;;;;;;;3.10;1.17;;;9.90;74.90;;;;;;5035320;28;20210;-85
2023/01/04 12:02:19;;;;;;;1.20;1.10;;;10.00;73.00;;;;;;5041169;28;20190;-85
2023/01/04 12:04:48;;;;;;;1.30;1.20;;;10.00;72.60;;;;;;5043983;28;20574;-85
2023/01/04 12:07:26;;;;;;;1.65;1.33;;;10.00;67.30;;;;;;5044211;28;20598;-85
2023/01/04 12:09:53;;;;;;;1.48;1.20;;;10.10;69.70;;;;;;5043963;28;20199;-85
2023/01/04 12:12:20;;;;;;;1.15;1.05;;;10.20;64.60;;;;;;5039007;28;20581;-85
2023/01/04 12:14:49;;;;;;;1.55;1.20;;;10.30;62.00;;;;;;5036757;28;20210;-85
2023/01/04 12:17:22;;;;;;;1.38;1.25;;;10.40;61.00;;;;;;5044126;28;20222;-85
2023/01/04 12:19:53;;;;;;;6.07;4.13;;;10.30;62.30;;;;;;5040612;28;20272;-85
2023/01/04 12:22:24;;;;;;;1.30;1.17;;;10.30;62.10;;;;;;5036224;28;20233;-84
2023/01/04 12:24:53;;;;;;;1.13;1.02;;;10.40;56.60;;;;;;5033172;28;20237;-85
2023/01/04 12:27:20;;;;;;;0.90;0.88;;;10.40;58.10;;;;;;5044571;28;20206;-85
2023/01/04 12:29:57;;;;;;;1.30;1.13;;;10.40;56.10;;;;;;5036944;28;20285;-85
2023/01/04 12:32:45;;;;;;;0.80;0.80;;;10.40;55.10;;;;;;5051331;28;20565;-85
2023/01/04 12:36:00;;;;;;;1.08;0.98;;;10.30;56.10;;;;;;5039139;28;20649;-85
2023/01/04 12:39:19;;;;;;;3.28;1.40;;;10.30;54.80;;;;;;5023080;28;20203;-85
2023/01/04 12:42:32;;;;;;;0.75;0.75;;;10.30;52.80;;;;;;5009364;28;20265;-85
2023/01/04 12:45:21;;;;;;;1.23;0.95;;;10.30;47.90;;;;;;5009697;28;20210;-85
2023/01/04 12:51:20;;;;;;;1.48;1.00;;;10.30;49.30;;;;;;5045141;28;20212;-85
2023/01/04 12:53:52;;;;;;;1.95;1.20;;;10.30;49.10;;;;;;5035110;28;20201;-85
2023/01/04 12:56:18;;;;;;;3.00;1.25;;;10.30;47.50;;;;;;5037069;28;20226;-85
2023/01/04 12:59:09;;;;;;;2.25;1.77;;;10.40;44.90;;;;;;5044713;28;20194;-85
2023/01/04 13:01:37;;;;;;;1.70;1.60;;;10.40;47.20;;;;;;5042593;28;20210;-85
2023/01/04 13:04:29;;;;;;;2.45;1.80;;;10.50;47.20;;;;;;5045986;28;20194;-85
2023/01/04 13:07:09;;;;;;;2.22;1.45;;;10.50;43.70;;;;;;5035381;28;20205;-85
2023/01/04 13:09:51;;;;;;;2.05;1.80;;;10.60;44.50;;;;;;5038911;28;20198;-85
2023/01/04 13:12:43;;;;;;;7.75;4.70;;;10.50;38.50;;;;;;5047464;28;20225;-86
2023/01/04 13:15:19;;;;;;;1.63;1.52;;;10.60;37.10;;;;;;5038971;28;20213;-85
2023/01/04 13:17:47;;;;;;;3.35;1.45;;;10.70;36.30;;;;;;5044908;28;20261;-85
2023/01/04 13:20:17;;;;;;;1.30;1.20;;;10.70;33.20;;;;;;5046244;28;20670;-85
2023/01/04 13:22:51;;;;;;;1.30;1.20;;;10.80;33.30;;;;;;5040946;28;20218;-85
2023/01/04 13:25:20;;;;;;;1.65;1.45;;;10.80;33.00;;;;;;5035712;28;20285;-85
2023/01/04 13:27:58;;;;;;;2.17;1.25;;;10.70;33.00;;;;;;5045653;28;20213;-85
2023/01/04 13:30:35;;;;;;;1.83;1.23;;;10.80;30.30;;;;;;5043794;28;20203;-85
2023/01/04 13:33:14;;;;;;;2.53;1.40;;;10.90;30.90;;;;;;5044614;28;20200;-85
2023/01/04 13:35:41;;;;;;;0.98;0.80;;;11.00;30.00;;;;;;5044447;28;20540;-85
2023/01/04 13:38:13;;;;;;;1.00;0.80;;;11.00;27.60;;;;;;5045682;28;20624;-85
2023/01/04 13:40:44;;;;;;;0.98;0.75;;;11.00;28.70;;;;;;5048323;28;20203;-85
2023/01/04 13:43:41;;;;;;;1.60;1.42;;;11.00;26.40;;;;;;5043437;28;20843;-85
2023/01/04 13:46:16;;;;;;;2.95;2.25;;;11.00;27.00;;;;;;5044308;28;20194;-85
2023/01/04 13:48:47;;;;;;;2.42;1.00;;;10.90;27.80;;;;;;5039586;28;20229;-85
2023/01/04 13:51:16;;;;;;;1.20;1.10;;;11.00;26.50;;;;;;5046768;28;20206;-85
2023/01/04 13:53:52;;;;;;;0.90;0.80;;;11.00;25.80;;;;;;5040567;28;20299;-85
2023/01/04 13:56:21;;;;;;;0.70;0.70;;;11.00;26.40;;;;;;5046736;28;20226;-85
2023/01/04 13:58:48;;;;;;;1.38;0.80;;;10.90;26.70;;;;;;5037012;28;20221;-85
2023/01/04 14:01:21;;;;;;;1.10;1.00;;;10.90;24.50;;;;;;5037544;28;20202;-85
2023/01/04 14:03:51;;;;;;;5.93;2.45;;;10.90;27.00;;;;;;5042505;28;20198;-85
2023/01/04 14:06:22;;;;;;;0.73;0.70;;;10.80;24.40;;;;;;5044388;28;20549;-84
2023/01/04 14:08:55;;;;;;;0.90;0.80;;;10.80;24.40;;;;;;5043459;28;20224;-85
2023/01/04 14:14:20;;;;;;;2.55;1.70;;;10.80;25.40;;;;;;5048252;28;20201;-85
2023/01/04 14:16:50;;;;;;;1.23;1.13;;;10.80;24.40;;;;;;5045903;28;20218;-85